createdAt,value
2022-11-07T00:01:12.444Z,12.13
2022-11-07T00:03:39.249Z,12.23
2022-11-07T00:06:06.435Z,12.11
2022-11-07T00:08:33.286Z,11.89
2022-11-07T00:11:01.588Z,12.28
2022-11-07T00:13:29.373Z,12.40
2022-11-07T00:16:04.453Z,11.91
2022-11-07T00:18:31.985Z,12.01
2022-11-07T00:21:03.024Z,12.28
2022-11-07T00:23:29.870Z,12.23
2022-11-07T00:26:08.076Z,12.13
2022-11-07T00:28:36.249Z,12.17
2022-11-07T00:31:04.480Z,12.11
2022-11-07T00:33:31.618Z,12.22
2022-11-07T00:35:58.545Z,12.20
2022-11-07T00:38:25.506Z,12.35
2022-11-07T00:41:05.998Z,12.37
2022-11-07T00:43:33.491Z,12.05
2022-11-07T00:46:02.648Z,12.33
2022-11-07T00:48:30.321Z,12.06
2022-11-07T00:50:57.091Z,12.38
2022-11-07T00:53:24.108Z,12.08
2022-11-07T00:55:50.963Z,12.47
2022-11-07T00:58:17.944Z,12.42
2022-11-07T01:00:45.267Z,12.17
2022-11-07T01:03:30.475Z,12.71
2022-11-07T01:06:02.660Z,12.38
2022-11-07T01:08:29.924Z,12.21
2022-11-07T01:10:57.877Z,12.36
2022-11-07T01:13:25.614Z,12.24
2022-11-07T01:15:52.570Z,12.19
2022-11-07T01:18:19.470Z,12.38
2022-11-07T01:20:46.718Z,12.46
2022-11-07T01:23:13.992Z,12.42
2022-11-07T01:25:41.620Z,12.40
2022-11-07T01:28:09.521Z,12.17
2022-11-07T01:30:41.602Z,12.42
2022-11-07T01:33:09.197Z,12.57
2022-11-07T01:35:36.619Z,12.49
2022-11-07T01:38:03.918Z,12.70
2022-11-07T01:40:31.170Z,12.33
2022-11-07T01:42:57.970Z,12.28
2022-11-07T01:45:30.991Z,12.97
2022-11-07T01:48:01.704Z,12.47
2022-11-07T01:50:29.228Z,12.62
2022-11-07T01:52:57.040Z,12.83
2022-11-07T01:55:29.180Z,12.44
2022-11-07T01:58:00.705Z,12.43
2022-11-07T02:00:29.059Z,12.57
2022-11-07T02:03:01.397Z,12.73
2022-11-07T02:05:34.292Z,12.67
2022-11-07T02:08:04.611Z,12.71
2022-11-07T02:10:33.373Z,12.75
2022-11-07T02:13:00.664Z,12.69
2022-11-07T02:15:28.323Z,12.41
2022-11-07T02:17:56.128Z,12.60
2022-11-07T02:20:23.317Z,12.46
2022-11-07T02:22:56.400Z,12.42
2022-11-07T02:25:23.463Z,12.53
2022-11-07T02:27:54.356Z,12.35
2022-11-07T02:30:26.073Z,12.53
2022-11-07T02:32:53.043Z,12.58
2022-11-07T02:35:42.614Z,12.53
2022-11-07T02:38:11.282Z,12.40
2022-11-07T02:40:39.110Z,12.53
2022-11-07T02:43:09.584Z,12.56
2022-11-07T02:45:39.338Z,12.67
2022-11-07T02:48:06.742Z,12.53
2022-11-07T02:50:33.826Z,12.70
2022-11-07T02:53:00.601Z,12.43
2022-11-07T02:55:27.655Z,12.47
2022-11-07T02:57:54.439Z,12.85
2022-11-07T03:00:21.236Z,13.03
2022-11-07T03:02:48.100Z,12.87
2022-11-07T03:05:17.674Z,12.70
2022-11-07T03:07:45.719Z,12.56
2022-11-07T03:10:13.511Z,12.62
2022-11-07T03:12:40.344Z,12.46
2022-11-07T03:15:09.242Z,12.92
2022-11-07T03:17:36.080Z,12.68
2022-11-07T03:20:03.959Z,12.51
2022-11-07T03:22:30.984Z,12.76
2022-11-07T03:24:57.757Z,12.70
2022-11-07T03:27:24.584Z,12.85
2022-11-07T03:29:51.395Z,12.78
2022-11-07T03:32:18.192Z,13.03
2022-11-07T03:34:45.325Z,12.84
2022-11-07T03:37:12.111Z,13.37
2022-11-07T03:39:38.956Z,13.05
2022-11-07T03:42:05.899Z,12.81
2022-11-07T03:44:32.755Z,13.00
2022-11-07T03:46:59.544Z,12.59
2022-11-07T03:49:26.284Z,12.73
2022-11-07T03:51:53.058Z,13.30
2022-11-07T03:54:19.820Z,12.97
2022-11-07T03:56:46.565Z,13.06
2022-11-07T03:59:13.364Z,12.49
2022-11-07T04:01:40.305Z,12.73
2022-11-07T04:04:07.100Z,12.62
2022-11-07T04:06:33.850Z,12.75
2022-11-07T04:09:00.629Z,13.26
2022-11-07T04:11:45.999Z,12.45
2022-11-07T04:14:31.339Z,12.86
2022-11-07T04:17:16.633Z,12.45
2022-11-07T04:19:43.423Z,12.58
2022-11-07T04:22:10.383Z,12.51
2022-11-07T04:24:40.307Z,12.69
2022-11-07T04:27:30.716Z,12.38
2022-11-07T04:29:57.500Z,12.34
2022-11-07T04:32:24.683Z,12.20
2022-11-07T04:34:52.339Z,12.62
2022-11-07T04:37:19.623Z,12.36
2022-11-07T04:39:46.400Z,12.55
2022-11-07T04:42:13.172Z,12.69
2022-11-07T04:44:39.942Z,12.49
2022-11-07T04:47:06.717Z,12.66
2022-11-07T04:49:34.157Z,12.29
2022-11-07T04:52:00.961Z,12.85
2022-11-07T04:54:27.805Z,12.83
2022-11-07T04:56:54.623Z,12.75
2022-11-07T04:59:21.400Z,12.66
2022-11-07T05:01:48.268Z,12.48
2022-11-07T05:04:15.073Z,12.30
2022-11-07T05:06:42.207Z,12.55
2022-11-07T05:09:14.476Z,12.53
2022-11-07T05:11:41.208Z,12.54
2022-11-07T05:14:08.517Z,12.41
2022-11-07T05:16:35.966Z,12.56
2022-11-07T05:19:02.760Z,12.48
2022-11-07T05:21:29.545Z,12.85
2022-11-07T05:23:56.279Z,12.54
2022-11-07T05:26:23.035Z,12.81
2022-11-07T05:28:49.789Z,12.55
2022-11-07T05:31:17.770Z,12.62
2022-11-07T05:33:44.740Z,12.44
2022-11-07T05:36:18.354Z,12.37
2022-11-07T05:38:47.587Z,12.73
2022-11-07T05:41:16.131Z,12.86
2022-11-07T05:43:43.638Z,12.84
2022-11-07T05:46:10.697Z,12.85
2022-11-07T05:48:38.089Z,12.71
2022-11-07T05:51:07.030Z,12.92
2022-11-07T05:53:34.247Z,12.55
2022-11-07T05:56:01.331Z,12.12
2022-11-07T05:58:28.412Z,12.51
2022-11-07T06:00:55.191Z,12.48
2022-11-07T06:03:22.665Z,12.51
2022-11-07T06:05:49.563Z,12.71
2022-11-07T06:08:16.735Z,11.96
2022-11-07T06:10:44.011Z,12.32
2022-11-07T06:13:14.706Z,12.30
2022-11-07T06:15:43.417Z,12.57
2022-11-07T06:18:16.908Z,12.56
2022-11-07T06:20:44.196Z,12.70
2022-11-07T06:23:11.100Z,12.55
2022-11-07T06:25:38.304Z,12.82
2022-11-07T06:28:09.517Z,12.41
2022-11-07T06:30:37.096Z,12.40
2022-11-07T06:33:21.915Z,12.66
2022-11-07T06:35:48.707Z,12.44
2022-11-07T06:38:15.791Z,12.64
2022-11-07T06:40:43.427Z,12.27
2022-11-07T06:43:16.252Z,12.30
2022-11-07T06:45:44.587Z,12.48
2022-11-07T06:48:12.043Z,12.00
2022-11-07T06:50:39.334Z,12.09
2022-11-07T06:53:08.453Z,12.35
2022-11-07T06:55:36.827Z,12.23
2022-11-07T06:58:04.789Z,12.33
2022-11-07T07:00:33.967Z,12.26
2022-11-07T07:03:00.955Z,12.43
2022-11-07T07:05:27.899Z,12.33
2022-11-07T07:07:55.935Z,12.48
2022-11-07T07:10:25.224Z,12.29
2022-11-07T07:12:56.631Z,12.50
2022-11-07T07:15:24.120Z,12.18
2022-11-07T07:17:50.992Z,12.39
2022-11-07T07:20:17.845Z,12.27
2022-11-07T07:22:45.249Z,12.20
2022-11-07T07:25:12.101Z,12.31
2022-11-07T07:27:38.883Z,12.65
2022-11-07T07:30:06.288Z,12.63
2022-11-07T07:32:35.489Z,12.35
2022-11-07T07:35:02.371Z,12.54
2022-11-07T07:37:29.379Z,12.18
2022-11-07T07:39:56.478Z,12.47
2022-11-07T07:42:23.378Z,12.44
2022-11-07T07:44:50.157Z,12.40
2022-11-07T07:47:16.893Z,12.49
2022-11-07T07:49:43.678Z,12.43
2022-11-07T07:52:10.402Z,12.35
2022-11-07T07:54:37.706Z,12.38
2022-11-07T07:57:04.515Z,12.55
2022-11-07T07:59:31.276Z,12.38
2022-11-07T08:01:58.137Z,12.21
2022-11-07T08:04:25.285Z,12.77
2022-11-07T08:06:52.038Z,12.92
2022-11-07T08:09:18.817Z,12.69
2022-11-07T08:11:45.585Z,12.73
2022-11-07T08:14:12.467Z,12.79
2022-11-07T08:16:39.479Z,12.83
2022-11-07T08:19:06.380Z,12.62
2022-11-07T08:21:33.244Z,12.77
2022-11-07T08:24:00.953Z,12.46
2022-11-07T08:26:27.795Z,13.00
2022-11-07T08:28:55.112Z,12.63
2022-11-07T08:31:22.498Z,12.86
2022-11-07T08:33:49.327Z,12.97
2022-11-07T08:36:16.161Z,12.98
2022-11-07T08:38:42.951Z,13.10
2022-11-07T08:41:09.740Z,12.78
2022-11-07T08:43:36.489Z,13.20
2022-11-07T08:46:03.379Z,13.18
2022-11-07T08:48:30.345Z,13.13
2022-11-07T08:50:57.895Z,13.11
2022-11-07T08:53:26.659Z,13.02
2022-11-07T08:56:00.164Z,13.40
2022-11-07T08:58:29.966Z,13.58
2022-11-07T09:00:57.378Z,13.72
2022-11-07T09:03:44.369Z,13.12
2022-11-07T09:06:11.381Z,13.46
2022-11-07T09:08:38.340Z,13.20
2022-11-07T09:11:05.792Z,12.97
2022-11-07T09:13:34.043Z,13.19
2022-11-07T09:16:03.047Z,13.13
2022-11-07T09:18:32.138Z,13.33
2022-11-07T09:20:59.551Z,13.47
2022-11-07T09:23:27.689Z,13.35
2022-11-07T09:25:54.994Z,13.65
2022-11-07T09:28:21.958Z,13.85
2022-11-07T09:30:54.398Z,13.39
2022-11-07T09:33:21.620Z,13.19
2022-11-07T09:35:48.466Z,13.80
2022-11-07T09:38:16.538Z,13.71
2022-11-07T09:41:06.235Z,13.69
2022-11-07T09:43:39.893Z,13.65
2022-11-07T09:46:33.253Z,13.29
2022-11-07T09:49:08.957Z,13.74
2022-11-07T09:51:39.721Z,13.65
2022-11-07T09:54:18.916Z,13.59
2022-11-07T09:56:46.848Z,13.97
2022-11-07T09:59:21.421Z,13.85
2022-11-07T10:01:48.513Z,13.88
2022-11-07T10:04:25.897Z,14.07
2022-11-07T10:07:04.370Z,13.77
2022-11-07T10:10:00.979Z,13.48
2022-11-07T10:12:44.489Z,14.02
2022-11-07T10:15:39.852Z,13.94
2022-11-07T10:18:52.003Z,13.93
2022-11-07T10:21:37.711Z,14.37
2022-11-07T10:24:46.521Z,14.46
2022-11-07T10:27:13.956Z,14.43
2022-11-07T10:29:52.414Z,14.14
2022-11-07T10:32:28.374Z,13.83
2022-11-07T10:35:27.149Z,13.87
2022-11-07T10:38:04.732Z,13.87
2022-11-07T10:40:38.921Z,13.84
2022-11-07T10:43:13.168Z,14.44
2022-11-07T10:45:40.891Z,14.04
2022-11-07T10:48:07.688Z,14.04
2022-11-07T10:50:34.490Z,14.15
2022-11-07T10:53:05.604Z,14.07
2022-11-07T10:55:43.412Z,14.28
2022-11-07T10:58:27.043Z,14.28
2022-11-07T11:01:12.569Z,14.42
2022-11-07T11:03:44.695Z,14.62
2022-11-07T11:06:18.289Z,14.64
2022-11-07T11:08:46.774Z,14.65
2022-11-07T11:11:34.636Z,14.77
2022-11-07T11:14:21.774Z,14.80
2022-11-07T11:16:54.611Z,14.99
2022-11-07T11:19:25.860Z,14.57
2022-11-07T11:21:55.538Z,14.66
2022-11-07T11:24:31.726Z,15.19
2022-11-07T11:27:12.626Z,15.62
2022-11-07T11:29:45.453Z,15.28
2022-11-07T11:32:36.472Z,14.94
2022-11-07T11:35:21.620Z,14.69
2022-11-07T11:37:58.070Z,15.18
2022-11-07T11:40:25.382Z,14.94
2022-11-07T11:43:04.212Z,14.67
2022-11-07T11:45:40.452Z,15.28
2022-11-07T11:48:31.967Z,14.90
2022-11-07T11:51:12.956Z,15.02
2022-11-07T11:53:39.815Z,15.33
2022-11-07T11:56:06.526Z,14.95
2022-11-07T11:58:52.363Z,15.38
2022-11-07T12:01:38.134Z,15.08
2022-11-07T12:04:42.761Z,15.52
2022-11-07T12:07:21.608Z,15.49
2022-11-07T12:10:00.988Z,15.49
2022-11-07T12:12:48.549Z,15.62
2022-11-07T12:15:47.154Z,15.77
2022-11-07T12:18:32.173Z,15.82
2022-11-07T12:21:04.647Z,15.50
2022-11-07T12:23:52.597Z,16.02
2022-11-07T12:26:36.095Z,15.79
2022-11-07T12:29:21.110Z,15.96
2022-11-07T12:31:50.709Z,15.70
2022-11-07T12:34:20.438Z,15.35
2022-11-07T12:37:03.019Z,15.65
2022-11-07T12:40:02.587Z,15.88
2022-11-07T12:42:50.332Z,15.64
2022-11-07T12:46:00.544Z,15.91
2022-11-07T12:48:55.430Z,16.00
2022-11-07T12:51:41.059Z,16.17
2022-11-07T12:54:22.090Z,16.07
2022-11-07T12:56:50.770Z,16.16
2022-11-07T12:59:23.935Z,16.31
2022-11-07T13:02:25.642Z,16.48
2022-11-07T13:05:13.154Z,16.32
2022-11-07T13:07:53.959Z,16.39
2022-11-07T13:10:40.827Z,16.52
2022-11-07T13:13:47.133Z,16.70
2022-11-07T13:16:29.169Z,16.91
2022-11-07T13:19:07.714Z,16.86
2022-11-07T13:21:44.056Z,16.65
2022-11-07T13:24:22.251Z,16.62
2022-11-07T13:26:49.062Z,16.70
2022-11-07T13:29:23.676Z,16.75
2022-11-07T13:32:06.010Z,16.66
2022-11-07T13:34:44.800Z,16.14
2022-11-07T13:37:22.446Z,16.07
2022-11-07T13:39:54.632Z,16.43
2022-11-07T13:42:24.128Z,16.40
2022-11-07T13:44:54.574Z,16.41
2022-11-07T13:47:27.989Z,16.60
2022-11-07T13:50:00.854Z,16.55
2022-11-07T13:52:56.734Z,15.84
2022-11-07T13:55:41.445Z,15.77
2022-11-07T13:58:12.998Z,15.86
2022-11-07T14:00:40.216Z,15.89
2022-11-07T14:03:07.134Z,15.74
2022-11-07T14:05:36.399Z,16.08
2022-11-07T14:08:29.344Z,16.02
2022-11-07T14:10:56.182Z,15.53
2022-11-07T14:13:26.644Z,15.96
2022-11-07T14:15:56.921Z,15.67
2022-11-07T14:18:27.060Z,15.91
2022-11-07T14:20:57.456Z,15.79
2022-11-07T14:23:28.060Z,15.57
2022-11-07T14:25:59.608Z,15.81
2022-11-07T14:28:39.652Z,16.02
2022-11-07T14:31:14.090Z,15.57
2022-11-07T14:33:48.285Z,15.75
2022-11-07T14:36:15.117Z,15.74
2022-11-07T14:38:50.362Z,15.95
2022-11-07T14:41:19.907Z,15.69
2022-11-07T14:43:48.252Z,15.76
2022-11-07T14:46:22.359Z,15.87
2022-11-07T14:48:51.440Z,16.05
2022-11-07T14:51:23.617Z,15.83
2022-11-07T14:53:56.300Z,15.51
2022-11-07T14:56:28.782Z,15.85
2022-11-07T14:58:56.173Z,15.63
2022-11-07T15:01:30.486Z,15.81
2022-11-07T15:04:30.853Z,15.74
2022-11-07T15:06:57.606Z,15.54
2022-11-07T15:09:33.509Z,15.20
2022-11-07T15:12:01.155Z,14.89
2022-11-07T15:14:34.630Z,15.17
2022-11-07T15:17:04.389Z,15.42
2022-11-07T15:19:36.969Z,15.26
2022-11-07T15:22:05.168Z,15.37
2022-11-07T15:24:46.267Z,15.02
2022-11-07T15:27:20.635Z,15.07
2022-11-07T15:30:01.984Z,15.71
2022-11-07T15:32:36.077Z,14.97
2022-11-07T15:35:42.349Z,14.69
2022-11-07T15:38:02.135Z,15.34
2022-11-07T15:40:30.144Z,15.15
2022-11-07T15:42:57.203Z,15.41
2022-11-07T15:45:24.493Z,15.11
2022-11-07T15:47:51.890Z,15.66
2022-11-07T15:50:21.766Z,15.27
2022-11-07T15:52:49.686Z,15.16
2022-11-07T15:55:19.020Z,15.01
2022-11-07T15:57:48.830Z,15.67
2022-11-07T16:00:18.605Z,15.65
2022-11-07T16:02:45.926Z,15.29
2022-11-07T16:05:13.665Z,15.36
2022-11-07T16:07:42.523Z,15.59
2022-11-07T16:10:22.347Z,15.44
2022-11-07T16:12:50.164Z,15.26
2022-11-07T16:15:18.709Z,15.35
2022-11-07T16:17:45.958Z,14.78
2022-11-07T16:20:18.984Z,15.32
2022-11-07T16:22:46.991Z,15.12
2022-11-07T16:25:22.017Z,15.13
2022-11-07T16:27:55.710Z,15.21
2022-11-07T16:30:23.100Z,15.08
2022-11-07T16:32:49.889Z,15.17
2022-11-07T16:35:16.736Z,15.15
2022-11-07T16:37:43.532Z,15.29
2022-11-07T16:40:16.389Z,15.51
2022-11-07T16:42:43.164Z,15.30
2022-11-07T16:45:15.448Z,14.87
2022-11-07T16:47:44.144Z,15.03
2022-11-07T16:50:16.063Z,15.39
2022-11-07T16:52:42.880Z,14.87
2022-11-07T16:55:17.874Z,14.97
2022-11-07T16:57:44.801Z,14.55
2022-11-07T17:00:23.327Z,15.02
2022-11-07T17:02:50.537Z,14.93
2022-11-07T17:05:17.705Z,14.36
2022-11-07T17:07:44.652Z,14.17
2022-11-07T17:10:17.179Z,14.28
2022-11-07T17:12:44.404Z,14.47
2022-11-07T17:15:11.321Z,14.46
2022-11-07T17:17:38.237Z,14.45
2022-11-07T17:20:06.952Z,14.35
2022-11-07T17:22:33.781Z,14.32
2022-11-07T17:25:00.588Z,14.43
2022-11-07T17:27:28.638Z,14.47
2022-11-07T17:29:55.528Z,14.30
2022-11-07T17:32:22.478Z,14.07
2022-11-07T17:35:10.599Z,14.76
2022-11-07T17:37:36.712Z,14.23
2022-11-07T17:40:04.975Z,14.94
2022-11-07T17:42:37.591Z,14.54
2022-11-07T17:45:06.033Z,14.27
2022-11-07T17:47:34.458Z,14.42
2022-11-07T17:50:01.548Z,14.38
2022-11-07T17:52:30.420Z,14.44
2022-11-07T17:54:57.231Z,14.43
2022-11-07T17:57:24.023Z,14.41
2022-11-07T17:59:51.722Z,14.48
2022-11-07T18:02:19.863Z,14.19
2022-11-07T18:04:47.502Z,14.33
2022-11-07T18:07:14.303Z,14.60
2022-11-07T18:09:41.879Z,14.40
2022-11-07T18:12:10.195Z,14.52
2022-11-07T18:14:37.363Z,14.29
2022-11-07T18:17:04.661Z,14.02
2022-11-07T18:19:31.702Z,14.58
2022-11-07T18:21:58.746Z,14.48
2022-11-07T18:24:25.663Z,14.71
2022-11-07T18:26:53.421Z,14.46
2022-11-07T18:29:20.210Z,14.30
2022-11-07T18:31:51.343Z,14.18
2022-11-07T18:34:18.350Z,14.40
2022-11-07T18:36:46.102Z,14.53
2022-11-07T18:39:18.628Z,14.46
2022-11-07T18:41:45.818Z,14.50
2022-11-07T18:44:13.173Z,14.50
2022-11-07T18:46:42.746Z,14.35
2022-11-07T18:49:10.860Z,14.30
2022-11-07T18:51:37.943Z,14.71
2022-11-07T18:54:06.513Z,14.33
2022-11-07T18:56:33.788Z,14.24
2022-11-07T18:59:00.674Z,14.08
2022-11-07T19:01:30.834Z,14.63
2022-11-07T19:04:01.265Z,14.76
2022-11-07T19:06:29.684Z,14.39
2022-11-07T19:08:56.517Z,14.57
2022-11-07T19:11:29.487Z,14.83
2022-11-07T19:14:00.315Z,14.38
2022-11-07T19:16:27.225Z,14.45
2022-11-07T19:18:54.164Z,14.70
2022-11-07T19:21:23.396Z,14.60
2022-11-07T19:23:50.532Z,14.46
2022-11-07T19:26:19.179Z,14.71
2022-11-07T19:28:46.812Z,14.62
2022-11-07T19:31:13.739Z,14.73
2022-11-07T19:33:41.772Z,14.40
2022-11-07T19:36:14.721Z,14.45
2022-11-07T19:38:41.595Z,14.49
2022-11-07T19:41:09.956Z,14.53
2022-11-07T19:43:36.813Z,14.69
2022-11-07T19:46:08.817Z,14.84
2022-11-07T19:48:35.634Z,14.46
2022-11-07T19:51:07.541Z,14.67
2022-11-07T19:53:34.469Z,14.42
2022-11-07T19:56:14.344Z,15.03
2022-11-07T19:58:42.360Z,14.63
2022-11-07T20:01:15.367Z,14.42
2022-11-07T20:03:47.156Z,14.73
2022-11-07T20:06:15.841Z,14.87
2022-11-07T20:08:43.747Z,14.71
2022-11-07T20:11:14.005Z,15.09
2022-11-07T20:13:41.049Z,14.58
2022-11-07T20:16:09.160Z,14.95
2022-11-07T20:18:37.318Z,15.16
2022-11-07T20:21:06.713Z,14.99
2022-11-07T20:23:34.064Z,15.01
2022-11-07T20:26:04.683Z,14.65
2022-11-07T20:28:31.448Z,14.70
2022-11-07T20:30:58.237Z,15.16
2022-11-07T20:33:25.186Z,15.04
2022-11-07T20:36:00.492Z,15.17
2022-11-07T20:38:28.583Z,15.41
2022-11-07T20:40:55.827Z,15.08
2022-11-07T20:43:23.044Z,15.18
2022-11-07T20:45:50.591Z,15.14
2022-11-07T20:48:18.171Z,14.91
2022-11-07T20:50:45.443Z,15.35
2022-11-07T20:53:12.896Z,15.23
2022-11-07T20:55:43.898Z,15.06
2022-11-07T20:58:11.756Z,15.42
2022-11-07T21:00:40.779Z,14.95
2022-11-07T21:03:13.112Z,15.18
2022-11-07T21:05:39.949Z,15.42
2022-11-07T21:08:06.774Z,15.19
2022-11-07T21:10:33.570Z,15.70
2022-11-07T21:13:00.317Z,15.37
2022-11-07T21:15:27.175Z,15.06
2022-11-07T21:17:53.976Z,15.43
2022-11-07T21:20:20.738Z,15.63
2022-11-07T21:22:50.831Z,14.99
2022-11-07T21:25:17.693Z,15.10
2022-11-07T21:27:44.512Z,15.30
2022-11-07T21:30:13.047Z,15.45
2022-11-07T21:32:39.963Z,15.79
2022-11-07T21:35:07.133Z,15.50
2022-11-07T21:37:34.028Z,15.03
2022-11-07T21:40:00.781Z,15.26
2022-11-07T21:42:27.610Z,15.31
2022-11-07T21:44:54.405Z,15.67
2022-11-07T21:47:21.161Z,15.18
2022-11-07T21:49:49.806Z,15.68
2022-11-07T21:52:17.330Z,15.65
2022-11-07T21:54:44.988Z,15.29
2022-11-07T21:57:11.814Z,15.40
2022-11-07T21:59:38.601Z,15.48
2022-11-07T22:02:05.580Z,15.04
2022-11-07T22:04:32.674Z,15.54
2022-11-07T22:06:59.521Z,15.53
2022-11-07T22:09:26.314Z,15.53
2022-11-07T22:11:53.287Z,15.35
2022-11-07T22:14:22.281Z,15.19
2022-11-07T22:16:50.787Z,15.21
2022-11-07T22:19:18.917Z,15.26
2022-11-07T22:21:45.763Z,15.56
2022-11-07T22:24:12.526Z,15.74
2022-11-07T22:26:39.380Z,15.25
2022-11-07T22:29:06.236Z,14.91
2022-11-07T22:31:33.102Z,15.07
2022-11-07T22:34:00.889Z,15.01
2022-11-07T22:36:28.625Z,15.04
2022-11-07T22:38:57.504Z,14.88
2022-11-07T22:41:25.790Z,15.18
2022-11-07T22:43:53.907Z,15.08
2022-11-07T22:46:23.694Z,14.94
2022-11-07T22:48:51.586Z,14.62
2022-11-07T22:51:21.895Z,14.78
2022-11-07T22:53:54.792Z,14.81
2022-11-07T22:56:21.642Z,14.94
2022-11-07T22:58:48.556Z,14.69
2022-11-07T23:01:27.086Z,14.77
2022-11-07T23:03:54.394Z,14.58
2022-11-07T23:06:22.113Z,14.52
2022-11-07T23:08:49.853Z,14.29
2022-11-07T23:11:45.203Z,14.78
2022-11-07T23:14:12.463Z,14.68
2022-11-07T23:16:43.543Z,14.86
2022-11-07T23:19:13.327Z,14.36
2022-11-07T23:21:40.594Z,14.47
2022-11-07T23:24:07.722Z,14.87
2022-11-07T23:26:35.007Z,14.74
2022-11-07T23:29:10.050Z,14.51
2022-11-07T23:31:38.265Z,14.27
2022-11-07T23:34:05.160Z,14.54
2022-11-07T23:36:32.054Z,14.38
2022-11-07T23:39:06.337Z,14.45
2022-11-07T23:41:33.758Z,14.31
2022-11-07T23:44:00.892Z,14.63
2022-11-07T23:46:46.155Z,14.35
2022-11-07T23:49:31.398Z,14.43
2022-11-07T23:51:58.416Z,14.24
2022-11-07T23:54:43.905Z,14.19
2022-11-07T23:57:10.732Z,14.09
2022-11-07T23:59:56.184Z,14.45
